createdAt,value
2023-12-10T00:00:18.818Z,4.11
2023-12-10T00:02:45.394Z,4.26
2023-12-10T00:05:11.915Z,4.62
2023-12-10T00:07:38.428Z,4.66
2023-12-10T00:10:05.307Z,4.57
2023-12-10T00:12:32.137Z,4.61
2023-12-10T00:14:59.032Z,4.64
2023-12-10T00:17:25.530Z,4.65
2023-12-10T00:19:53.167Z,4.63
2023-12-10T00:22:20.048Z,4.67
2023-12-10T00:24:46.627Z,4.75
2023-12-10T00:27:13.423Z,4.92
2023-12-10T00:29:40.269Z,4.79
2023-12-10T00:32:06.895Z,4.82
2023-12-10T00:34:33.467Z,4.64
2023-12-10T00:37:00.012Z,4.69
2023-12-10T00:39:26.590Z,4.80
2023-12-10T00:41:53.174Z,4.72
2023-12-10T00:44:19.671Z,4.70
2023-12-10T00:46:46.141Z,4.72
2023-12-10T00:49:12.803Z,4.90
2023-12-10T00:51:39.481Z,4.84
2023-12-10T00:54:08.866Z,5.00
2023-12-10T00:56:35.649Z,5.02
2023-12-10T00:59:02.237Z,5.10
2023-12-10T01:01:28.957Z,5.09
2023-12-10T01:03:55.811Z,5.01
2023-12-10T01:06:22.422Z,5.14
2023-12-10T01:08:48.931Z,5.05
2023-12-10T01:11:15.989Z,5.02
2023-12-10T01:13:42.753Z,5.16
2023-12-10T01:16:09.533Z,5.10
2023-12-10T01:18:38.640Z,5.32
2023-12-10T01:21:11.309Z,5.45
2023-12-10T01:23:38.513Z,5.32
2023-12-10T01:26:05.394Z,5.19
2023-12-10T01:28:31.950Z,5.20
2023-12-10T01:30:58.967Z,5.23
2023-12-10T01:33:25.806Z,5.25
2023-12-10T01:35:52.644Z,5.28
2023-12-10T01:38:19.719Z,5.31
2023-12-10T01:40:46.362Z,5.52
2023-12-10T01:43:13.022Z,5.67
2023-12-10T01:45:40.927Z,5.68
2023-12-10T01:48:08.901Z,5.52
2023-12-10T01:50:37.311Z,5.41
2023-12-10T01:53:04.721Z,5.26
2023-12-10T01:55:31.469Z,5.45
2023-12-10T01:57:58.426Z,5.35
2023-12-10T02:00:25.102Z,5.66
2023-12-10T02:02:51.708Z,5.88
2023-12-10T02:05:19.233Z,6.03
2023-12-10T02:07:45.884Z,6.15
2023-12-10T02:10:12.529Z,6.05
2023-12-10T02:12:40.706Z,5.97
2023-12-10T02:15:20.382Z,5.98
2023-12-10T02:17:48.136Z,5.84
2023-12-10T02:20:16.191Z,6.05
2023-12-10T02:23:04.077Z,5.87
2023-12-10T02:25:37.988Z,5.93
2023-12-10T02:28:06.054Z,6.09
2023-12-10T02:30:33.423Z,6.29
2023-12-10T02:33:00.447Z,6.27
2023-12-10T02:35:30.277Z,6.03
2023-12-10T02:37:57.006Z,6.24
2023-12-10T02:40:23.641Z,6.09
2023-12-10T02:42:50.494Z,6.05
2023-12-10T02:45:17.895Z,5.77
2023-12-10T02:47:44.797Z,5.96
2023-12-10T02:50:11.725Z,5.82
2023-12-10T02:52:38.647Z,6.02
2023-12-10T02:55:06.831Z,5.94
2023-12-10T02:57:33.464Z,5.88
2023-12-10T03:00:00.213Z,5.94
2023-12-10T03:02:27.128Z,5.76
2023-12-10T03:04:54.102Z,5.76
2023-12-10T03:07:20.626Z,5.79
2023-12-10T03:09:47.162Z,5.75
2023-12-10T03:12:13.804Z,5.74
2023-12-10T03:14:41.082Z,5.87
2023-12-10T03:17:07.548Z,5.98
2023-12-10T03:19:34.256Z,6.00
2023-12-10T03:22:00.735Z,6.16
2023-12-10T03:24:27.231Z,6.20
2023-12-10T03:26:53.857Z,6.19
2023-12-10T03:29:20.356Z,6.02
2023-12-10T03:31:46.811Z,5.86
2023-12-10T03:34:13.464Z,5.82
2023-12-10T03:36:40.124Z,5.78
2023-12-10T03:39:06.790Z,5.84
2023-12-10T03:41:33.250Z,5.81
2023-12-10T03:43:59.775Z,5.94
2023-12-10T03:46:26.266Z,5.65
2023-12-10T03:48:53.217Z,5.63
2023-12-10T03:51:19.877Z,5.59
2023-12-10T03:53:46.407Z,5.69
2023-12-10T03:56:12.900Z,5.49
2023-12-10T03:58:39.487Z,5.65
2023-12-10T04:01:06.282Z,5.49
2023-12-10T04:03:33.095Z,5.50
2023-12-10T04:06:01.458Z,5.72
2023-12-10T04:08:27.961Z,5.78
2023-12-10T04:10:54.497Z,5.72
2023-12-10T04:13:20.982Z,5.60
2023-12-10T04:15:48.200Z,5.51
2023-12-10T04:18:16.112Z,5.51
2023-12-10T04:20:43.642Z,5.52
2023-12-10T04:23:10.163Z,5.71
2023-12-10T04:25:36.627Z,5.62
2023-12-10T04:28:04.762Z,5.58
2023-12-10T04:30:32.527Z,5.77
2023-12-10T04:32:59.203Z,5.50
2023-12-10T04:35:25.858Z,5.71
2023-12-10T04:37:52.367Z,5.89
2023-12-10T04:40:18.933Z,5.73
2023-12-10T04:42:45.497Z,5.67
2023-12-10T04:45:12.118Z,5.54
2023-12-10T04:47:38.884Z,5.69
2023-12-10T04:50:06.154Z,5.51
2023-12-10T04:52:33.488Z,5.88
2023-12-10T04:55:00.449Z,5.81
2023-12-10T04:57:27.653Z,5.92
2023-12-10T04:59:54.241Z,5.90
2023-12-10T05:02:20.700Z,6.09
2023-12-10T05:04:47.216Z,6.06
2023-12-10T05:07:13.656Z,5.75
2023-12-10T05:09:40.225Z,5.61
2023-12-10T05:12:07.006Z,5.66
2023-12-10T05:14:33.486Z,5.55
2023-12-10T05:17:00.207Z,5.85
2023-12-10T05:19:26.861Z,5.72
2023-12-10T05:21:53.445Z,5.72
2023-12-10T05:24:20.052Z,5.64
2023-12-10T05:26:46.621Z,5.69
2023-12-10T05:29:13.113Z,5.68
2023-12-10T05:31:39.782Z,5.84
2023-12-10T05:34:06.406Z,5.57
2023-12-10T05:36:33.020Z,5.71
2023-12-10T05:38:59.546Z,5.60
2023-12-10T05:41:26.034Z,5.81
2023-12-10T05:43:52.512Z,5.73
2023-12-10T05:46:19.049Z,5.79
2023-12-10T05:48:45.680Z,5.79
2023-12-10T05:51:12.529Z,5.74
2023-12-10T05:53:39.026Z,5.91
2023-12-10T05:56:06.046Z,5.61
2023-12-10T05:58:32.538Z,5.55
2023-12-10T06:00:59.291Z,5.50
2023-12-10T06:03:26.270Z,5.56
2023-12-10T06:05:53.026Z,5.46
2023-12-10T06:08:19.677Z,5.45
2023-12-10T06:10:46.320Z,5.39
2023-12-10T06:13:12.892Z,5.46
2023-12-10T06:15:39.544Z,5.52
2023-12-10T06:18:06.329Z,5.48
2023-12-10T06:20:32.961Z,5.62
2023-12-10T06:22:59.429Z,5.28
2023-12-10T06:25:26.012Z,5.31
2023-12-10T06:27:52.676Z,5.31
2023-12-10T06:30:19.347Z,5.35
2023-12-10T06:32:46.006Z,5.58
2023-12-10T06:35:12.950Z,5.56
2023-12-10T06:37:39.582Z,5.60
2023-12-10T06:40:07.544Z,5.36
2023-12-10T06:42:35.428Z,5.50
2023-12-10T06:45:02.750Z,5.29
2023-12-10T06:47:29.466Z,5.32
2023-12-10T06:49:56.427Z,5.23
2023-12-10T06:52:22.945Z,5.35
2023-12-10T06:54:49.612Z,5.38
2023-12-10T06:57:16.226Z,5.46
2023-12-10T06:59:42.812Z,5.53
2023-12-10T07:02:09.569Z,5.38
2023-12-10T07:04:36.214Z,5.38
2023-12-10T07:07:03.389Z,5.35
2023-12-10T07:09:30.079Z,5.63
2023-12-10T07:11:56.635Z,5.56
2023-12-10T07:14:23.358Z,5.37
2023-12-10T07:16:49.948Z,5.47
2023-12-10T07:19:16.624Z,5.61
2023-12-10T07:21:43.160Z,5.73
2023-12-10T07:24:09.960Z,5.87
2023-12-10T07:26:36.516Z,5.83
2023-12-10T07:29:03.016Z,6.12
2023-12-10T07:31:31.259Z,5.86
2023-12-10T07:33:57.783Z,5.97
2023-12-10T07:36:24.391Z,5.88
2023-12-10T07:38:50.976Z,5.90
2023-12-10T07:41:17.481Z,6.12
2023-12-10T07:43:44.006Z,6.17
2023-12-10T07:46:10.503Z,6.24
2023-12-10T07:48:37.187Z,6.25
2023-12-10T07:51:03.913Z,6.39
2023-12-10T07:53:30.477Z,6.30
2023-12-10T07:55:57.006Z,6.13
2023-12-10T07:58:23.722Z,5.94
2023-12-10T08:00:51.034Z,5.62
2023-12-10T08:03:17.794Z,5.73
2023-12-10T08:05:44.510Z,5.98
2023-12-10T08:08:10.964Z,6.10
2023-12-10T08:10:37.524Z,6.00
2023-12-10T08:13:04.223Z,6.32
2023-12-10T08:15:31.021Z,6.59
2023-12-10T08:17:57.689Z,6.47
2023-12-10T08:20:24.220Z,6.47
2023-12-10T08:22:50.833Z,6.65
2023-12-10T08:25:17.470Z,6.75
2023-12-10T08:27:44.137Z,6.47
2023-12-10T08:30:11.150Z,6.47
2023-12-10T08:32:38.306Z,6.34
2023-12-10T08:35:05.535Z,6.67
2023-12-10T08:37:32.564Z,7.05
2023-12-10T08:39:59.475Z,6.95
2023-12-10T08:42:27.440Z,7.10
2023-12-10T08:44:54.228Z,7.88
2023-12-10T08:47:20.696Z,7.35
2023-12-10T08:49:47.184Z,7.27
2023-12-10T08:52:13.704Z,7.01
2023-12-10T08:54:40.322Z,6.98
2023-12-10T08:57:06.912Z,6.76
2023-12-10T08:59:33.618Z,6.87
2023-12-10T09:02:00.172Z,7.10
2023-12-10T09:04:27.008Z,7.22
2023-12-10T09:06:53.638Z,7.32
2023-12-10T09:09:21.448Z,7.38
2023-12-10T09:11:49.060Z,7.47
2023-12-10T09:14:15.591Z,7.42
2023-12-10T09:16:42.588Z,7.39
2023-12-10T09:19:09.289Z,8.07
2023-12-10T09:21:35.870Z,7.78
2023-12-10T09:24:02.415Z,6.97
2023-12-10T09:26:31.591Z,7.01
2023-12-10T09:28:58.353Z,6.84
2023-12-10T09:31:24.862Z,7.01
2023-12-10T09:33:51.537Z,6.89
2023-12-10T09:36:18.762Z,7.21
2023-12-10T09:38:45.977Z,7.10
2023-12-10T09:41:12.708Z,7.15
2023-12-10T09:43:39.498Z,6.99
2023-12-10T09:46:09.301Z,6.99
2023-12-10T09:48:37.926Z,7.31
2023-12-10T09:51:04.682Z,7.20
2023-12-10T09:53:31.260Z,7.18
2023-12-10T09:55:57.749Z,7.14
2023-12-10T09:58:24.268Z,7.31
2023-12-10T10:00:52.074Z,7.45
2023-12-10T10:03:20.912Z,7.47
2023-12-10T10:05:47.780Z,7.59
2023-12-10T10:08:15.524Z,7.84
2023-12-10T10:10:41.994Z,8.13
2023-12-10T10:13:08.878Z,7.86
2023-12-10T10:15:35.430Z,7.74
2023-12-10T10:18:02.084Z,7.85
2023-12-10T10:20:29.593Z,7.94
2023-12-10T10:22:56.116Z,7.80
2023-12-10T10:25:22.603Z,7.67
2023-12-10T10:27:52.729Z,7.78
2023-12-10T10:30:19.314Z,8.08
2023-12-10T10:32:47.569Z,8.42
2023-12-10T10:35:14.696Z,8.26
2023-12-10T10:37:43.545Z,8.33
2023-12-10T10:40:10.417Z,8.26
2023-12-10T10:42:37.049Z,8.36
2023-12-10T10:45:04.479Z,8.31
2023-12-10T10:47:33.907Z,8.02
2023-12-10T10:50:20.690Z,8.15
2023-12-10T10:52:49.937Z,7.96
2023-12-10T10:55:17.622Z,8.32
2023-12-10T10:57:44.200Z,8.30
2023-12-10T11:00:20.701Z,8.61
2023-12-10T11:02:57.849Z,8.70
2023-12-10T11:05:35.206Z,9.17
2023-12-10T11:08:05.036Z,9.31
2023-12-10T11:10:32.111Z,9.36
2023-12-10T11:13:00.598Z,9.00
2023-12-10T11:15:31.727Z,8.99
2023-12-10T11:18:03.807Z,8.81
2023-12-10T11:20:34.894Z,9.12
2023-12-10T11:23:03.806Z,8.91
2023-12-10T11:25:30.735Z,8.53
2023-12-10T11:28:00.939Z,8.39
2023-12-10T11:30:29.066Z,8.42
2023-12-10T11:32:55.954Z,8.46
2023-12-10T11:35:22.659Z,8.14
2023-12-10T11:37:49.259Z,8.62
2023-12-10T11:40:15.988Z,8.72
2023-12-10T11:42:42.545Z,8.41
2023-12-10T11:45:10.026Z,8.61
2023-12-10T11:47:36.638Z,8.61
2023-12-10T11:50:07.166Z,8.45
2023-12-10T11:52:34.294Z,8.57
2023-12-10T11:55:01.079Z,8.69
2023-12-10T11:57:27.903Z,8.89
2023-12-10T11:59:55.006Z,8.46
2023-12-10T12:02:21.542Z,8.51
2023-12-10T12:04:51.526Z,8.75
2023-12-10T12:07:26.040Z,8.99
2023-12-10T12:09:54.963Z,8.86
2023-12-10T12:12:22.606Z,8.74
2023-12-10T12:14:53.021Z,8.57
2023-12-10T12:17:20.942Z,8.66
2023-12-10T12:19:47.665Z,8.72
2023-12-10T12:22:14.668Z,8.44
2023-12-10T12:24:41.372Z,8.65
2023-12-10T12:27:08.716Z,8.63
2023-12-10T12:29:36.371Z,8.30
2023-12-10T12:32:18.668Z,8.38
2023-12-10T12:34:50.847Z,8.09
2023-12-10T12:37:17.452Z,8.02
2023-12-10T12:39:44.097Z,8.16
2023-12-10T12:42:10.616Z,8.22
2023-12-10T12:44:37.197Z,7.93
2023-12-10T12:47:04.031Z,7.78
2023-12-10T12:49:31.294Z,8.41
2023-12-10T12:51:58.075Z,8.07
2023-12-10T12:54:24.622Z,8.23
2023-12-10T12:56:52.175Z,8.38
2023-12-10T12:59:18.735Z,8.47
2023-12-10T13:01:45.806Z,8.39
2023-12-10T13:04:12.682Z,8.40
2023-12-10T13:06:39.404Z,8.76
2023-12-10T13:09:05.966Z,8.43
2023-12-10T13:11:32.601Z,8.55
2023-12-10T13:13:59.084Z,8.23
2023-12-10T13:16:25.714Z,8.27
2023-12-10T13:18:52.676Z,8.09
2023-12-10T13:21:22.031Z,7.98
2023-12-10T13:23:50.040Z,8.09
2023-12-10T13:26:16.542Z,8.02
2023-12-10T13:28:43.115Z,8.10
2023-12-10T13:31:11.448Z,7.74
2023-12-10T13:33:38.151Z,7.86
2023-12-10T13:36:05.567Z,7.73
2023-12-10T13:38:32.665Z,7.97
2023-12-10T13:40:59.161Z,8.09
2023-12-10T13:43:25.701Z,8.19
2023-12-10T13:45:52.244Z,8.19
2023-12-10T13:48:19.006Z,8.37
2023-12-10T13:50:45.513Z,8.05
2023-12-10T13:53:12.001Z,8.03
2023-12-10T13:55:38.503Z,8.16
2023-12-10T13:58:05.381Z,8.22
2023-12-10T14:00:32.545Z,7.93
2023-12-10T14:02:59.126Z,7.76
2023-12-10T14:05:25.676Z,7.67
2023-12-10T14:07:52.177Z,7.65
2023-12-10T14:10:19.183Z,7.79
2023-12-10T14:12:45.948Z,7.87
2023-12-10T14:15:12.694Z,7.85
2023-12-10T14:17:39.802Z,7.81
2023-12-10T14:20:10.029Z,7.53
2023-12-10T14:22:37.355Z,7.63
2023-12-10T14:25:04.285Z,7.87
2023-12-10T14:27:31.186Z,7.79
2023-12-10T14:29:59.101Z,7.64
2023-12-10T14:32:25.919Z,7.65
2023-12-10T14:34:52.500Z,7.47
2023-12-10T14:37:19.137Z,7.43
2023-12-10T14:39:45.811Z,7.43
2023-12-10T14:42:12.420Z,7.52
2023-12-10T14:44:39.029Z,7.42
2023-12-10T14:47:05.721Z,7.40
2023-12-10T14:49:32.311Z,6.98
2023-12-10T14:51:59.087Z,7.15
2023-12-10T14:54:26.622Z,7.27
2023-12-10T14:56:53.145Z,7.04
2023-12-10T14:59:20.257Z,7.29
2023-12-10T15:01:58.768Z,7.41
2023-12-10T15:04:32.868Z,7.38
2023-12-10T15:06:59.606Z,7.38
2023-12-10T15:09:26.194Z,7.36
2023-12-10T15:11:52.736Z,7.45
2023-12-10T15:14:19.710Z,7.34
2023-12-10T15:16:46.195Z,7.31
2023-12-10T15:19:12.851Z,7.07
2023-12-10T15:21:39.426Z,7.14
2023-12-10T15:24:06.095Z,7.15
2023-12-10T15:26:32.581Z,6.92
2023-12-10T15:28:59.377Z,6.89
2023-12-10T15:31:25.908Z,7.07
2023-12-10T15:33:52.521Z,6.88
2023-12-10T15:36:20.989Z,6.70
2023-12-10T15:38:47.506Z,6.65
2023-12-10T15:41:14.163Z,6.64
2023-12-10T15:43:40.689Z,6.58
2023-12-10T15:46:07.335Z,6.62
2023-12-10T15:48:34.831Z,6.46
2023-12-10T15:51:01.582Z,6.56
2023-12-10T15:53:28.112Z,6.74
2023-12-10T15:55:54.682Z,6.68
2023-12-10T15:58:21.210Z,6.59
2023-12-10T16:00:52.951Z,6.20
2023-12-10T16:03:23.175Z,6.47
2023-12-10T16:05:51.336Z,6.41
2023-12-10T16:08:19.134Z,6.44
2023-12-10T16:10:46.082Z,6.34
2023-12-10T16:13:16.611Z,6.32
2023-12-10T16:15:45.908Z,6.34
2023-12-10T16:18:12.658Z,6.17
2023-12-10T16:20:39.995Z,6.23
2023-12-10T16:23:06.476Z,6.10
2023-12-10T16:25:32.975Z,6.02
2023-12-10T16:27:59.535Z,5.97
2023-12-10T16:30:26.579Z,5.87
2023-12-10T16:32:54.439Z,5.71
2023-12-10T16:35:21.218Z,5.75
2023-12-10T16:37:47.689Z,5.73
2023-12-10T16:40:15.268Z,5.77
2023-12-10T16:42:42.033Z,5.67
2023-12-10T16:45:11.074Z,5.58
2023-12-10T16:47:38.100Z,5.50
2023-12-10T16:50:06.767Z,5.36
2023-12-10T16:52:33.674Z,5.53
2023-12-10T16:55:00.509Z,5.48
2023-12-10T16:57:27.496Z,5.66
2023-12-10T16:59:54.313Z,5.60
2023-12-10T17:02:20.849Z,5.58
2023-12-10T17:04:47.495Z,5.58
2023-12-10T17:07:14.126Z,5.73
2023-12-10T17:09:40.686Z,5.33
2023-12-10T17:12:07.497Z,5.05
2023-12-10T17:14:34.019Z,5.13
2023-12-10T17:17:00.613Z,5.20
2023-12-10T17:19:27.312Z,5.30
2023-12-10T17:21:53.999Z,5.26
2023-12-10T17:24:20.500Z,5.22
2023-12-10T17:26:47.095Z,5.19
2023-12-10T17:29:13.591Z,5.05
2023-12-10T17:31:40.127Z,5.22
2023-12-10T17:34:06.767Z,5.15
2023-12-10T17:36:33.417Z,5.23
2023-12-10T17:38:59.909Z,5.08
2023-12-10T17:41:26.695Z,5.20
2023-12-10T17:43:54.522Z,4.95
2023-12-10T17:46:21.133Z,4.98
2023-12-10T17:48:52.027Z,5.17
2023-12-10T17:51:19.125Z,5.10
2023-12-10T17:53:46.162Z,5.04
2023-12-10T17:56:14.595Z,5.13
2023-12-10T17:58:41.933Z,5.05
2023-12-10T18:01:08.744Z,5.17
2023-12-10T18:03:35.474Z,5.15
2023-12-10T18:06:02.519Z,5.07
2023-12-10T18:08:29.094Z,5.11
2023-12-10T18:10:55.703Z,5.26
2023-12-10T18:13:22.501Z,5.15
2023-12-10T18:15:49.098Z,5.13
2023-12-10T18:18:16.209Z,5.24
2023-12-10T18:20:43.600Z,5.21
2023-12-10T18:23:10.323Z,5.25
2023-12-10T18:25:37.368Z,5.08
2023-12-10T18:28:04.477Z,5.02
2023-12-10T18:30:32.187Z,4.98
2023-12-10T18:32:59.158Z,4.86
2023-12-10T18:35:26.327Z,5.07
2023-12-10T18:37:53.133Z,5.11
2023-12-10T18:40:19.826Z,5.15
2023-12-10T18:42:47.133Z,4.90
2023-12-10T18:45:13.775Z,4.88
2023-12-10T18:47:40.811Z,4.83
2023-12-10T18:50:09.278Z,4.60
2023-12-10T18:52:36.177Z,4.68
2023-12-10T18:55:02.821Z,4.62
2023-12-10T18:57:30.205Z,4.67
2023-12-10T18:59:57.155Z,4.27
2023-12-10T19:02:25.024Z,4.39
2023-12-10T19:04:51.856Z,4.58
2023-12-10T19:07:18.609Z,4.65
2023-12-10T19:09:48.888Z,4.68
2023-12-10T19:12:18.758Z,4.74
2023-12-10T19:14:46.928Z,4.78
2023-12-10T19:17:13.773Z,4.86
2023-12-10T19:19:40.978Z,4.93
2023-12-10T19:22:07.764Z,4.94
2023-12-10T19:24:34.808Z,5.01
2023-12-10T19:27:01.400Z,5.14
2023-12-10T19:29:28.137Z,5.09
2023-12-10T19:31:54.723Z,4.98
2023-12-10T19:34:21.471Z,5.15
2023-12-10T19:36:48.102Z,4.93
2023-12-10T19:39:14.681Z,4.90
2023-12-10T19:41:41.267Z,4.99
2023-12-10T19:44:07.900Z,4.97
2023-12-10T19:46:34.486Z,5.03
2023-12-10T19:49:01.069Z,4.94
2023-12-10T19:51:27.635Z,4.79
2023-12-10T19:53:54.332Z,4.72
2023-12-10T19:56:20.938Z,4.79
2023-12-10T19:58:47.486Z,4.78
2023-12-10T20:01:14.507Z,4.71
2023-12-10T20:03:41.228Z,4.74
2023-12-10T20:06:08.617Z,4.83
2023-12-10T20:08:35.391Z,4.84
2023-12-10T20:11:02.288Z,4.88
2023-12-10T20:13:29.494Z,4.82
2023-12-10T20:15:56.431Z,4.74
2023-12-10T20:18:23.746Z,4.55
2023-12-10T20:20:50.803Z,4.60
2023-12-10T20:23:17.776Z,4.64
2023-12-10T20:25:46.047Z,4.59
2023-12-10T20:28:13.376Z,4.48
2023-12-10T20:30:42.916Z,4.71
2023-12-10T20:33:10.202Z,4.55
2023-12-10T20:35:36.939Z,4.61
2023-12-10T20:38:03.513Z,4.57
2023-12-10T20:40:30.168Z,4.68
2023-12-10T20:42:56.827Z,4.56
2023-12-10T20:45:23.377Z,4.81
2023-12-10T20:47:52.038Z,4.54
2023-12-10T20:50:19.961Z,4.49
2023-12-10T20:52:47.585Z,4.55
2023-12-10T20:55:14.871Z,4.61
2023-12-10T20:57:41.560Z,4.59
2023-12-10T21:00:09.604Z,4.56
2023-12-10T21:02:36.311Z,4.35
2023-12-10T21:05:03.249Z,4.52
2023-12-10T21:07:30.272Z,4.56
2023-12-10T21:09:56.968Z,4.46
2023-12-10T21:12:23.499Z,4.63
2023-12-10T21:14:50.850Z,4.73
2023-12-10T21:17:17.673Z,4.84
2023-12-10T21:19:44.889Z,4.70
2023-12-10T21:22:11.637Z,4.45
2023-12-10T21:24:38.203Z,4.41
2023-12-10T21:27:04.995Z,4.34
2023-12-10T21:29:31.505Z,4.46
2023-12-10T21:31:58.032Z,4.51
2023-12-10T21:34:24.573Z,4.37
2023-12-10T21:36:51.199Z,4.29
2023-12-10T21:39:17.909Z,4.25
2023-12-10T21:41:44.540Z,4.26
2023-12-10T21:44:11.158Z,4.55
2023-12-10T21:46:39.267Z,4.56
2023-12-10T21:49:05.980Z,4.56
2023-12-10T21:51:32.651Z,4.69
2023-12-10T21:54:04.272Z,4.67
2023-12-10T21:56:30.895Z,4.71
2023-12-10T21:58:57.351Z,4.79
2023-12-10T22:01:23.961Z,4.78
2023-12-10T22:03:51.616Z,4.88
2023-12-10T22:06:18.516Z,5.16
2023-12-10T22:08:45.104Z,5.51
2023-12-10T22:11:13.886Z,5.53
2023-12-10T22:13:40.336Z,5.31
2023-12-10T22:16:07.268Z,5.43
2023-12-10T22:18:33.998Z,5.59
2023-12-10T22:21:00.756Z,5.85
2023-12-10T22:23:27.220Z,5.74
2023-12-10T22:25:53.695Z,5.61
2023-12-10T22:28:22.296Z,5.50
2023-12-10T22:30:48.872Z,5.50
2023-12-10T22:33:15.613Z,5.47
2023-12-10T22:35:42.166Z,5.69
2023-12-10T22:38:08.688Z,5.76
2023-12-10T22:40:35.226Z,5.82
2023-12-10T22:43:01.854Z,5.94
2023-12-10T22:45:28.405Z,5.83
2023-12-10T22:47:54.999Z,5.75
2023-12-10T22:50:23.883Z,5.67
2023-12-10T22:52:50.588Z,5.34
2023-12-10T22:55:17.089Z,5.36
2023-12-10T22:57:45.333Z,5.48
2023-12-10T23:00:17.972Z,5.41
2023-12-10T23:02:47.172Z,5.43
2023-12-10T23:05:14.020Z,5.26
2023-12-10T23:07:40.587Z,5.20
2023-12-10T23:10:07.433Z,5.28
2023-12-10T23:12:34.364Z,5.04
2023-12-10T23:15:01.379Z,5.26
2023-12-10T23:17:28.234Z,5.21
2023-12-10T23:19:55.593Z,5.04
2023-12-10T23:22:22.728Z,5.54
2023-12-10T23:24:50.003Z,5.33
2023-12-10T23:27:16.832Z,5.08
2023-12-10T23:29:43.514Z,4.83
2023-12-10T23:32:10.165Z,4.93
2023-12-10T23:34:37.065Z,5.21
2023-12-10T23:37:03.693Z,4.83
2023-12-10T23:39:30.314Z,4.71
2023-12-10T23:41:56.767Z,4.67
2023-12-10T23:44:23.307Z,4.80
2023-12-10T23:46:49.834Z,4.83
2023-12-10T23:49:16.435Z,4.64
2023-12-10T23:51:43.318Z,4.63
2023-12-10T23:54:11.362Z,4.88
2023-12-10T23:56:38.165Z,4.90
2023-12-10T23:59:04.761Z,4.68
